createdAt,value
2023-02-05T00:00:25.970Z,1.13
2023-02-05T00:05:28.147Z,0.77
2023-02-05T00:10:30.306Z,1.20
2023-02-05T00:15:34.171Z,1.40
2023-02-05T00:20:36.094Z,0.80
2023-02-05T00:25:38.300Z,1.40
2023-02-05T00:30:42.322Z,1.20
2023-02-05T00:35:44.565Z,0.83
2023-02-05T00:40:46.672Z,1.07
2023-02-05T00:45:50.159Z,1.30
2023-02-05T00:50:53.521Z,1.73
2023-02-05T00:55:55.776Z,1.67
2023-02-05T01:00:59.746Z,1.83
2023-02-05T01:06:01.914Z,1.87
2023-02-05T01:11:07.885Z,2.07
2023-02-05T01:16:11.133Z,1.67
2023-02-05T01:21:13.206Z,2.40
2023-02-05T01:26:15.070Z,2.20
2023-02-05T01:31:18.637Z,1.80
2023-02-05T01:36:20.558Z,1.57
2023-02-05T01:41:22.664Z,1.70
2023-02-05T01:46:29.697Z,2.17
2023-02-05T01:51:33.833Z,2.27
2023-02-05T01:56:39.829Z,2.00
2023-02-05T02:01:43.511Z,2.20
2023-02-05T02:06:45.615Z,1.57
2023-02-05T02:11:48.302Z,1.40
2023-02-05T02:16:53.149Z,1.57
2023-02-05T02:22:42.114Z,1.60
2023-02-05T02:27:53.233Z,1.60
2023-02-05T02:33:07.225Z,1.33
2023-02-05T02:38:16.901Z,2.23
2023-02-05T02:43:25.180Z,2.00
2023-02-05T02:48:30.625Z,1.57
2023-02-05T02:53:36.802Z,2.10
2023-02-05T02:58:47.109Z,1.40
2023-02-05T03:03:53.904Z,1.93
2023-02-05T03:09:00.199Z,1.20
2023-02-05T03:14:03.856Z,1.77
2023-02-05T03:19:06.430Z,1.70
2023-02-05T03:24:09.183Z,1.77
2023-02-05T03:29:16.021Z,1.23
2023-02-05T03:34:30.084Z,1.67
2023-02-05T03:39:41.936Z,1.83
2023-02-05T03:45:08.874Z,1.50
2023-02-05T03:50:20.346Z,1.60
2023-02-05T03:55:27.568Z,1.33
2023-02-05T04:00:32.577Z,2.30
2023-02-05T04:05:35.018Z,2.10
2023-02-05T04:10:37.411Z,1.87
2023-02-05T04:15:40.942Z,1.90
2023-02-05T04:20:46.618Z,1.97
2023-02-05T04:25:53.048Z,1.60
2023-02-05T04:30:57.044Z,1.93
2023-02-05T04:35:59.249Z,1.60
2023-02-05T04:41:01.369Z,2.00
2023-02-05T04:46:15.343Z,1.73
2023-02-05T04:51:17.333Z,1.70
2023-02-05T04:56:19.333Z,1.77
2023-02-05T05:01:23.892Z,1.80
2023-02-05T05:06:26.046Z,2.10
2023-02-05T05:11:28.269Z,1.37
2023-02-05T05:16:31.988Z,1.40
2023-02-05T05:21:34.057Z,1.60
2023-02-05T05:26:36.080Z,1.37
2023-02-05T05:31:40.234Z,2.20
2023-02-05T05:36:42.563Z,1.30
2023-02-05T05:41:44.841Z,1.70
2023-02-05T05:46:48.445Z,1.83
2023-02-05T05:51:50.606Z,1.70
2023-02-05T05:56:52.805Z,1.63
2023-02-05T06:01:56.433Z,1.77
2023-02-05T06:06:58.370Z,1.90
2023-02-05T06:12:00.853Z,1.57
2023-02-05T06:17:04.387Z,1.83
2023-02-05T06:22:06.193Z,1.60
2023-02-05T06:27:08.254Z,1.70
2023-02-05T06:32:11.445Z,1.73
2023-02-05T06:37:13.781Z,1.40
2023-02-05T06:42:15.875Z,1.60
2023-02-05T06:47:19.862Z,1.60
2023-02-05T06:52:21.953Z,1.60
2023-02-05T06:57:23.872Z,2.17
2023-02-05T07:02:29.572Z,2.10
2023-02-05T07:07:31.753Z,1.80
2023-02-05T07:12:34.572Z,1.80
2023-02-05T07:17:38.225Z,2.00
2023-02-05T07:22:40.038Z,1.80
2023-02-05T07:27:42.180Z,1.90
2023-02-05T07:32:45.922Z,1.80
2023-02-05T07:37:48.027Z,2.57
2023-02-05T07:42:49.804Z,2.60
2023-02-05T07:47:53.269Z,1.90
2023-02-05T07:52:55.125Z,2.00
2023-02-05T07:57:56.899Z,1.97
2023-02-05T08:03:00.306Z,1.87
2023-02-05T08:08:02.571Z,2.47
2023-02-05T08:13:04.727Z,2.10
2023-02-05T08:18:07.896Z,2.20
2023-02-05T08:23:09.673Z,1.57
2023-02-05T08:28:11.844Z,1.77
2023-02-05T08:33:18.006Z,1.70
2023-02-05T08:38:19.939Z,1.63
2023-02-05T08:43:21.740Z,1.90
2023-02-05T08:48:25.233Z,1.47
2023-02-05T08:53:27.648Z,2.00
2023-02-05T08:58:30.659Z,1.90
2023-02-05T09:03:34.398Z,1.40
2023-02-05T09:08:37.266Z,1.50
2023-02-05T09:13:39.477Z,1.80
2023-02-05T09:18:43.085Z,2.40
2023-02-05T09:23:45.350Z,1.63
2023-02-05T09:28:47.949Z,1.80
2023-02-05T09:33:51.584Z,1.60
2023-02-05T09:39:01.924Z,1.77
2023-02-05T09:44:15.878Z,1.97
2023-02-05T09:49:22.332Z,1.73
2023-02-05T09:54:27.685Z,1.83
2023-02-05T09:59:31.777Z,1.23
2023-02-05T10:04:35.149Z,1.63
2023-02-05T10:10:13.660Z,1.77
2023-02-05T10:15:31.567Z,1.63
2023-02-05T10:20:51.903Z,1.60
2023-02-05T10:26:05.065Z,1.63
2023-02-05T10:31:15.640Z,1.67
2023-02-05T10:36:22.299Z,1.40
2023-02-05T10:41:29.904Z,1.60
2023-02-05T10:46:35.714Z,1.67
2023-02-05T10:51:41.489Z,1.90
2023-02-05T10:56:43.449Z,1.90
2023-02-05T11:01:46.676Z,1.03
2023-02-05T11:06:52.545Z,1.50
2023-02-05T11:11:57.356Z,1.30
2023-02-05T11:17:03.454Z,1.40
2023-02-05T11:22:07.096Z,1.30
2023-02-05T11:27:28.350Z,0.80
2023-02-05T11:32:33.727Z,1.00
2023-02-05T11:37:39.802Z,1.00
2023-02-05T11:42:49.292Z,0.90
2023-02-05T11:47:51.339Z,1.23
2023-02-05T11:53:06.429Z,1.00
2023-02-05T11:58:31.446Z,0.60
2023-02-05T12:03:38.431Z,0.83
2023-02-05T12:08:47.177Z,0.80
2023-02-05T12:14:01.119Z,1.00
2023-02-05T12:19:13.797Z,0.90
2023-02-05T12:24:39.396Z,1.00
2023-02-05T12:30:00.419Z,0.80
2023-02-05T12:35:16.786Z,1.10
2023-02-05T12:40:39.330Z,1.67
2023-02-05T12:45:51.970Z,1.13
2023-02-05T12:51:06.848Z,0.90
2023-02-05T12:56:28.942Z,1.17
2023-02-05T13:01:40.824Z,1.30
2023-02-05T13:06:50.870Z,1.10
2023-02-05T13:11:58.028Z,0.97
2023-02-05T13:17:02.878Z,0.90
2023-02-05T13:22:13.371Z,0.83
2023-02-05T13:27:23.376Z,1.20
2023-02-05T13:32:26.668Z,1.30
2023-02-05T13:38:03.118Z,1.30
2023-02-05T13:43:32.339Z,1.20
2023-02-05T13:49:17.263Z,1.50
2023-02-05T13:54:52.042Z,1.03
2023-02-05T13:59:56.770Z,1.30
2023-02-05T14:05:00.214Z,1.00
2023-02-05T14:10:02.872Z,1.50
2023-02-05T14:15:35.785Z,1.47
2023-02-05T14:20:41.384Z,0.90
2023-02-05T14:26:08.673Z,0.70
2023-02-05T14:31:53.391Z,1.10
2023-02-05T14:36:56.849Z,0.73
2023-02-05T14:42:01.002Z,0.90
2023-02-05T14:47:08.828Z,0.70
2023-02-05T14:52:26.944Z,1.20
2023-02-05T14:57:40.703Z,1.00
2023-02-05T15:03:18.890Z,0.93
2023-02-05T15:08:37.166Z,0.93
2023-02-05T15:13:39.338Z,0.97
2023-02-05T15:18:43.772Z,0.90
2023-02-05T15:23:52.734Z,0.93
2023-02-05T15:29:00.037Z,1.10
2023-02-05T15:34:28.047Z,0.83
2023-02-05T15:39:37.772Z,1.03
2023-02-05T15:44:40.566Z,0.97
2023-02-05T15:49:44.655Z,0.83
2023-02-05T15:54:50.090Z,1.00
2023-02-05T15:59:54.644Z,1.10
2023-02-05T16:04:59.243Z,5.57
2023-02-05T16:10:16.545Z,5.90
2023-02-05T16:15:18.517Z,3.17
2023-02-05T16:20:25.335Z,2.13
2023-02-05T16:25:34.950Z,0.97
2023-02-05T16:30:41.696Z,1.53
2023-02-05T16:35:48.326Z,1.37
2023-02-05T16:40:54.857Z,1.10
2023-02-05T16:46:21.827Z,1.10
2023-02-05T16:51:34.470Z,0.80
2023-02-05T16:56:43.800Z,1.07
2023-02-05T17:01:46.202Z,1.00
2023-02-05T17:06:48.316Z,1.07
2023-02-05T17:11:52.043Z,1.17
2023-02-05T17:16:56.211Z,1.03
2023-02-05T17:22:20.420Z,1.00
2023-02-05T17:27:27.855Z,1.23
2023-02-05T17:32:32.493Z,1.30
2023-02-05T17:37:34.711Z,1.20
2023-02-05T17:42:39.064Z,1.10
2023-02-05T17:47:41.376Z,2.43
2023-02-05T17:52:43.560Z,1.20
2023-02-05T17:57:47.439Z,1.60
2023-02-05T18:02:50.469Z,1.87
2023-02-05T18:07:54.543Z,2.00
2023-02-05T18:12:58.527Z,1.80
2023-02-05T18:18:00.281Z,1.67
2023-02-05T18:23:02.349Z,1.63
2023-02-05T18:28:05.790Z,1.80
2023-02-05T18:33:13.916Z,1.73
2023-02-05T18:38:17.009Z,1.90
2023-02-05T18:43:20.629Z,2.20
2023-02-05T18:48:23.115Z,1.90
2023-02-05T18:53:25.180Z,2.33
2023-02-05T18:58:29.591Z,2.83
2023-02-05T19:03:31.499Z,3.10
2023-02-05T19:08:34.100Z,3.53
2023-02-05T19:13:38.267Z,3.47
2023-02-05T19:18:40.443Z,3.30
2023-02-05T19:23:44.600Z,2.73
2023-02-05T19:28:54.090Z,2.77
2023-02-05T19:33:57.610Z,1.80
2023-02-05T19:39:01.300Z,1.63
2023-02-05T19:44:07.204Z,1.60
2023-02-05T19:49:12.861Z,1.63
2023-02-05T19:54:15.730Z,2.00
2023-02-05T19:59:20.064Z,1.83
2023-02-05T20:04:24.269Z,2.50
2023-02-05T20:09:28.078Z,2.40
2023-02-05T20:14:31.868Z,2.13
2023-02-05T20:19:34.445Z,2.30
2023-02-05T20:24:37.094Z,1.60
2023-02-05T20:29:43.302Z,1.60
2023-02-05T20:34:46.166Z,1.40
2023-02-05T20:39:48.880Z,1.63
2023-02-05T20:44:52.661Z,1.83
2023-02-05T20:49:54.450Z,2.13
2023-02-05T20:54:56.282Z,2.13
2023-02-05T20:59:59.845Z,2.90
2023-02-05T21:05:02.380Z,2.17
2023-02-05T21:10:05.413Z,2.17
2023-02-05T21:15:09.202Z,2.97
2023-02-05T21:20:11.508Z,2.07
2023-02-05T21:25:13.868Z,1.90
2023-02-05T21:30:17.740Z,2.57
2023-02-05T21:35:20.124Z,2.80
2023-02-05T21:40:22.342Z,2.10
2023-02-05T21:45:25.966Z,1.93
2023-02-05T21:50:27.688Z,2.13
2023-02-05T21:55:30.082Z,3.40
2023-02-05T22:00:33.718Z,2.97
2023-02-05T22:05:36.046Z,3.23
2023-02-05T22:10:38.586Z,2.67
2023-02-05T22:15:42.297Z,2.90
2023-02-05T22:20:44.452Z,2.10
2023-02-05T22:25:46.850Z,2.77
2023-02-05T22:30:50.356Z,1.77
2023-02-05T22:35:52.891Z,1.60
2023-02-05T22:40:54.977Z,2.23
2023-02-05T22:46:03.439Z,2.00
2023-02-05T22:51:07.729Z,2.57
2023-02-05T22:56:11.740Z,1.93
2023-02-05T23:01:17.552Z,2.27
2023-02-05T23:06:22.277Z,2.70
2023-02-05T23:11:25.658Z,2.60
2023-02-05T23:16:31.257Z,2.50
2023-02-05T23:21:34.468Z,2.67
2023-02-05T23:26:38.642Z,2.23
2023-02-05T23:31:42.821Z,2.10
2023-02-05T23:36:45.037Z,2.20
2023-02-05T23:41:47.127Z,2.83
2023-02-05T23:46:51.539Z,2.07
2023-02-05T23:51:55.018Z,2.47
2023-02-05T23:56:57.195Z,2.27
